sensor_id;sensor_type;location;lat;lon;timestamp;P1;durP1;ratioP1;P2;durP2;ratioP2
29294;SDS011;16305;48.566;8.846;2023-03-01T00:00:38;29.40;;;15.80;;
29294;SDS011;16305;48.566;8.846;2023-03-01T00:03:03;16.17;;;8.57;;
29294;SDS011;16305;48.566;8.846;2023-03-01T00:05:29;22.70;;;13.03;;
29294;SDS011;16305;48.566;8.846;2023-03-01T00:07:54;31.47;;;16.07;;
29294;SDS011;16305;48.566;8.846;2023-03-01T00:10:20;27.80;;;14.47;;
29294;SDS011;16305;48.566;8.846;2023-03-01T00:12:45;28.53;;;15.83;;
29294;SDS011;16305;48.566;8.846;2023-03-01T00:15:11;25.53;;;12.30;;
29294;SDS011;16305;48.566;8.846;2023-03-01T00:17:37;16.67;;;11.03;;
29294;SDS011;16305;48.566;8.846;2023-03-01T00:20:03;30.07;;;14.20;;
29294;SDS011;16305;48.566;8.846;2023-03-01T00:22:32;22.23;;;10.47;;
29294;SDS011;16305;48.566;8.846;2023-03-01T00:24:58;25.30;;;13.33;;
29294;SDS011;16305;48.566;8.846;2023-03-01T00:27:23;23.27;;;13.60;;
29294;SDS011;16305;48.566;8.846;2023-03-01T00:29:49;32.13;;;17.77;;
29294;SDS011;16305;48.566;8.846;2023-03-01T00:32:14;20.73;;;11.20;;
29294;SDS011;16305;48.566;8.846;2023-03-01T00:34:40;26.30;;;13.50;;
29294;SDS011;16305;48.566;8.846;2023-03-01T00:37:05;33.63;;;18.13;;
29294;SDS011;16305;48.566;8.846;2023-03-01T00:39:31;18.60;;;9.97;;
29294;SDS011;16305;48.566;8.846;2023-03-01T00:41:58;29.23;;;15.47;;
29294;SDS011;16305;48.566;8.846;2023-03-01T00:44:23;31.43;;;15.50;;
29294;SDS011;16305;48.566;8.846;2023-03-01T00:46:49;27.20;;;13.10;;
29294;SDS011;16305;48.566;8.846;2023-03-01T00:49:14;31.33;;;15.63;;
29294;SDS011;16305;48.566;8.846;2023-03-01T00:51:40;29.50;;;15.53;;
29294;SDS011;16305;48.566;8.846;2023-03-01T00:54:07;31.77;;;16.97;;
29294;SDS011;16305;48.566;8.846;2023-03-01T00:56:34;32.03;;;15.87;;
29294;SDS011;16305;48.566;8.846;2023-03-01T00:58:59;32.13;;;18.10;;
29294;SDS011;16305;48.566;8.846;2023-03-01T01:01:26;27.57;;;13.17;;
29294;SDS011;16305;48.566;8.846;2023-03-01T01:03:57;26.97;;;14.03;;
29294;SDS011;16305;48.566;8.846;2023-03-01T01:06:26;25.00;;;12.20;;
29294;SDS011;16305;48.566;8.846;2023-03-01T01:08:54;30.23;;;16.53;;
29294;SDS011;16305;48.566;8.846;2023-03-01T01:11:21;23.70;;;12.00;;
29294;SDS011;16305;48.566;8.846;2023-03-01T01:13:48;33.40;;;16.63;;
29294;SDS011;16305;48.566;8.846;2023-03-01T01:16:14;31.87;;;15.93;;
29294;SDS011;16305;48.566;8.846;2023-03-01T01:18:41;26.20;;;14.97;;
29294;SDS011;16305;48.566;8.846;2023-03-01T01:21:08;32.87;;;15.93;;
29294;SDS011;16305;48.566;8.846;2023-03-01T01:23:36;33.83;;;17.77;;
29294;SDS011;16305;48.566;8.846;2023-03-01T01:26:10;26.93;;;12.07;;
29294;SDS011;16305;48.566;8.846;2023-03-01T01:28:37;20.03;;;9.47;;
29294;SDS011;16305;48.566;8.846;2023-03-01T01:31:03;28.50;;;14.30;;
29294;SDS011;16305;48.566;8.846;2023-03-01T01:33:29;31.33;;;16.67;;
29294;SDS011;16305;48.566;8.846;2023-03-01T01:35:55;21.47;;;12.63;;
29294;SDS011;16305;48.566;8.846;2023-03-01T01:38:21;20.87;;;10.57;;
29294;SDS011;16305;48.566;8.846;2023-03-01T01:40:48;32.70;;;17.87;;
29294;SDS011;16305;48.566;8.846;2023-03-01T01:43:19;29.83;;;16.50;;
29294;SDS011;16305;48.566;8.846;2023-03-01T01:45:48;31.13;;;14.10;;
29294;SDS011;16305;48.566;8.846;2023-03-01T01:48:16;33.50;;;15.73;;
29294;SDS011;16305;48.566;8.846;2023-03-01T01:50:45;30.07;;;16.60;;
29294;SDS011;16305;48.566;8.846;2023-03-01T01:53:18;32.17;;;16.93;;
29294;SDS011;16305;48.566;8.846;2023-03-01T01:55:45;33.87;;;17.23;;
29294;SDS011;16305;48.566;8.846;2023-03-01T01:58:18;29.60;;;16.60;;
29294;SDS011;16305;48.566;8.846;2023-03-01T02:00:45;31.80;;;16.73;;
29294;SDS011;16305;48.566;8.846;2023-03-01T02:03:13;31.43;;;14.37;;
29294;SDS011;16305;48.566;8.846;2023-03-01T02:05:47;34.20;;;17.13;;
29294;SDS011;16305;48.566;8.846;2023-03-01T02:08:25;34.33;;;17.37;;
29294;SDS011;16305;48.566;8.846;2023-03-01T02:10:52;29.60;;;16.83;;
29294;SDS011;16305;48.566;8.846;2023-03-01T02:13:19;34.80;;;17.27;;
29294;SDS011;16305;48.566;8.846;2023-03-01T02:15:45;31.03;;;17.60;;
29294;SDS011;16305;48.566;8.846;2023-03-01T02:18:12;34.87;;;17.67;;
29294;SDS011;16305;48.566;8.846;2023-03-01T02:23:33;30.30;;;14.47;;
29294;SDS011;16305;48.566;8.846;2023-03-01T02:28:37;31.07;;;15.80;;
29294;SDS011;16305;48.566;8.846;2023-03-01T02:31:05;32.03;;;17.37;;
29294;SDS011;16305;48.566;8.846;2023-03-01T02:33:51;30.87;;;14.90;;
29294;SDS011;16305;48.566;8.846;2023-03-01T02:36:25;33.97;;;18.90;;
29294;SDS011;16305;48.566;8.846;2023-03-01T02:38:55;27.37;;;14.80;;
29294;SDS011;16305;48.566;8.846;2023-03-01T02:41:23;35.17;;;17.10;;
29294;SDS011;16305;48.566;8.846;2023-03-01T02:43:51;32.40;;;17.20;;
29294;SDS011;16305;48.566;8.846;2023-03-01T02:46:18;33.97;;;17.97;;
29294;SDS011;16305;48.566;8.846;2023-03-01T02:48:54;32.70;;;18.40;;
29294;SDS011;16305;48.566;8.846;2023-03-01T02:54:26;33.50;;;17.33;;
29294;SDS011;16305;48.566;8.846;2023-03-01T02:56:56;26.90;;;15.23;;
29294;SDS011;16305;48.566;8.846;2023-03-01T02:59:24;25.90;;;14.67;;
29294;SDS011;16305;48.566;8.846;2023-03-01T03:01:54;25.83;;;13.47;;
29294;SDS011;16305;48.566;8.846;2023-03-01T03:04:19;20.03;;;11.97;;
29294;SDS011;16305;48.566;8.846;2023-03-01T03:06:46;26.73;;;13.97;;
29294;SDS011;16305;48.566;8.846;2023-03-01T03:09:14;23.50;;;13.40;;
29294;SDS011;16305;48.566;8.846;2023-03-01T03:11:40;34.83;;;17.37;;
29294;SDS011;16305;48.566;8.846;2023-03-01T03:14:08;32.43;;;17.63;;
29294;SDS011;16305;48.566;8.846;2023-03-01T03:16:47;21.67;;;13.10;;
29294;SDS011;16305;48.566;8.846;2023-03-01T03:19:15;30.33;;;17.33;;
29294;SDS011;16305;48.566;8.846;2023-03-01T03:21:41;32.13;;;15.23;;
29294;SDS011;16305;48.566;8.846;2023-03-01T03:24:07;29.20;;;15.97;;
29294;SDS011;16305;48.566;8.846;2023-03-01T03:26:33;38.60;;;19.33;;
29294;SDS011;16305;48.566;8.846;2023-03-01T03:28:58;35.40;;;18.37;;
29294;SDS011;16305;48.566;8.846;2023-03-01T03:31:24;41.00;;;19.10;;
29294;SDS011;16305;48.566;8.846;2023-03-01T03:33:50;34.57;;;17.80;;
29294;SDS011;16305;48.566;8.846;2023-03-01T03:36:16;35.33;;;20.17;;
29294;SDS011;16305;48.566;8.846;2023-03-01T03:38:43;32.10;;;18.90;;
29294;SDS011;16305;48.566;8.846;2023-03-01T03:41:10;36.97;;;19.50;;
29294;SDS011;16305;48.566;8.846;2023-03-01T03:43:37;34.87;;;18.60;;
29294;SDS011;16305;48.566;8.846;2023-03-01T03:46:04;32.37;;;18.07;;
29294;SDS011;16305;48.566;8.846;2023-03-01T03:48:31;33.20;;;18.73;;
29294;SDS011;16305;48.566;8.846;2023-03-01T03:50:58;32.73;;;18.87;;
29294;SDS011;16305;48.566;8.846;2023-03-01T03:53:24;35.27;;;19.43;;
29294;SDS011;16305;48.566;8.846;2023-03-01T03:55:51;39.23;;;19.07;;
29294;SDS011;16305;48.566;8.846;2023-03-01T03:58:18;36.43;;;18.97;;
29294;SDS011;16305;48.566;8.846;2023-03-01T04:00:46;34.63;;;17.90;;
29294;SDS011;16305;48.566;8.846;2023-03-01T04:03:14;28.70;;;16.33;;
29294;SDS011;16305;48.566;8.846;2023-03-01T04:05:41;36.83;;;19.37;;
29294;SDS011;16305;48.566;8.846;2023-03-01T04:08:08;35.43;;;18.53;;
29294;SDS011;16305;48.566;8.846;2023-03-01T04:10:38;35.40;;;18.37;;
29294;SDS011;16305;48.566;8.846;2023-03-01T04:13:09;37.07;;;20.30;;
29294;SDS011;16305;48.566;8.846;2023-03-01T04:15:37;34.23;;;19.10;;
29294;SDS011;16305;48.566;8.846;2023-03-01T04:18:04;37.13;;;19.37;;
29294;SDS011;16305;48.566;8.846;2023-03-01T04:20:30;28.97;;;14.70;;
29294;SDS011;16305;48.566;8.846;2023-03-01T04:23:01;36.30;;;18.73;;
29294;SDS011;16305;48.566;8.846;2023-03-01T04:25:35;35.73;;;17.30;;
29294;SDS011;16305;48.566;8.846;2023-03-01T04:28:05;31.57;;;17.17;;
29294;SDS011;16305;48.566;8.846;2023-03-01T04:30:31;39.33;;;20.93;;
29294;SDS011;16305;48.566;8.846;2023-03-01T04:33:00;38.47;;;17.97;;
29294;SDS011;16305;48.566;8.846;2023-03-01T04:35:30;35.70;;;18.37;;
29294;SDS011;16305;48.566;8.846;2023-03-01T04:37:56;35.17;;;18.93;;
29294;SDS011;16305;48.566;8.846;2023-03-01T04:40:22;38.97;;;20.60;;
29294;SDS011;16305;48.566;8.846;2023-03-01T04:42:48;36.93;;;20.40;;
29294;SDS011;16305;48.566;8.846;2023-03-01T04:45:14;36.70;;;19.93;;
29294;SDS011;16305;48.566;8.846;2023-03-01T04:47:40;41.93;;;20.90;;
29294;SDS011;16305;48.566;8.846;2023-03-01T04:50:07;34.17;;;19.63;;
29294;SDS011;16305;48.566;8.846;2023-03-01T04:52:34;37.23;;;20.00;;
29294;SDS011;16305;48.566;8.846;2023-03-01T04:55:00;37.87;;;20.67;;
29294;SDS011;16305;48.566;8.846;2023-03-01T04:57:26;37.43;;;20.17;;
29294;SDS011;16305;48.566;8.846;2023-03-01T04:59:52;40.20;;;21.03;;
29294;SDS011;16305;48.566;8.846;2023-03-01T05:02:17;35.83;;;19.80;;
29294;SDS011;16305;48.566;8.846;2023-03-01T05:04:43;37.37;;;20.40;;
29294;SDS011;16305;48.566;8.846;2023-03-01T05:07:08;36.13;;;20.53;;
29294;SDS011;16305;48.566;8.846;2023-03-01T05:09:34;43.37;;;20.23;;
29294;SDS011;16305;48.566;8.846;2023-03-01T05:11:59;37.07;;;19.63;;
29294;SDS011;16305;48.566;8.846;2023-03-01T05:14:25;36.53;;;20.27;;
29294;SDS011;16305;48.566;8.846;2023-03-01T05:16:50;40.10;;;21.50;;
29294;SDS011;16305;48.566;8.846;2023-03-01T05:19:16;38.13;;;20.10;;
29294;SDS011;16305;48.566;8.846;2023-03-01T05:21:42;35.57;;;20.13;;
29294;SDS011;16305;48.566;8.846;2023-03-01T05:24:26;37.20;;;19.70;;
29294;SDS011;16305;48.566;8.846;2023-03-01T05:26:53;32.33;;;17.97;;
29294;SDS011;16305;48.566;8.846;2023-03-01T05:29:19;37.73;;;19.23;;
29294;SDS011;16305;48.566;8.846;2023-03-01T05:31:50;37.93;;;19.73;;
29294;SDS011;16305;48.566;8.846;2023-03-01T05:34:17;27.90;;;15.43;;
29294;SDS011;16305;48.566;8.846;2023-03-01T05:36:42;31.17;;;18.73;;
29294;SDS011;16305;48.566;8.846;2023-03-01T05:39:08;35.97;;;19.27;;
29294;SDS011;16305;48.566;8.846;2023-03-01T05:41:33;35.13;;;19.00;;
29294;SDS011;16305;48.566;8.846;2023-03-01T05:43:59;43.73;;;20.63;;
29294;SDS011;16305;48.566;8.846;2023-03-01T05:46:24;33.40;;;17.90;;
29294;SDS011;16305;48.566;8.846;2023-03-01T05:48:50;38.13;;;19.83;;
29294;SDS011;16305;48.566;8.846;2023-03-01T05:51:15;37.53;;;20.70;;
29294;SDS011;16305;48.566;8.846;2023-03-01T05:53:41;39.27;;;20.13;;
29294;SDS011;16305;48.566;8.846;2023-03-01T05:56:07;35.90;;;18.43;;
29294;SDS011;16305;48.566;8.846;2023-03-01T05:58:32;28.33;;;14.83;;
29294;SDS011;16305;48.566;8.846;2023-03-01T06:00:58;31.63;;;17.43;;
29294;SDS011;16305;48.566;8.846;2023-03-01T06:03:23;28.97;;;12.93;;
29294;SDS011;16305;48.566;8.846;2023-03-01T06:05:49;35.93;;;18.87;;
29294;SDS011;16305;48.566;8.846;2023-03-01T06:08:14;37.07;;;19.97;;
29294;SDS011;16305;48.566;8.846;2023-03-01T06:10:40;36.80;;;19.33;;
29294;SDS011;16305;48.566;8.846;2023-03-01T06:13:05;31.87;;;18.63;;
29294;SDS011;16305;48.566;8.846;2023-03-01T06:15:31;37.07;;;19.93;;
29294;SDS011;16305;48.566;8.846;2023-03-01T06:17:56;34.50;;;18.83;;
29294;SDS011;16305;48.566;8.846;2023-03-01T06:20:23;39.03;;;20.33;;
29294;SDS011;16305;48.566;8.846;2023-03-01T06:22:50;33.70;;;16.67;;
29294;SDS011;16305;48.566;8.846;2023-03-01T06:25:17;30.57;;;16.60;;
29294;SDS011;16305;48.566;8.846;2023-03-01T06:27:44;38.87;;;18.43;;
29294;SDS011;16305;48.566;8.846;2023-03-01T06:30:10;28.93;;;14.90;;
29294;SDS011;16305;48.566;8.846;2023-03-01T06:32:38;27.00;;;14.47;;
29294;SDS011;16305;48.566;8.846;2023-03-01T06:35:07;31.93;;;17.63;;
29294;SDS011;16305;48.566;8.846;2023-03-01T06:37:32;32.67;;;16.87;;
29294;SDS011;16305;48.566;8.846;2023-03-01T06:39:58;35.70;;;20.33;;
29294;SDS011;16305;48.566;8.846;2023-03-01T06:42:24;40.73;;;21.20;;
29294;SDS011;16305;48.566;8.846;2023-03-01T06:44:49;32.67;;;17.83;;
29294;SDS011;16305;48.566;8.846;2023-03-01T06:47:15;35.63;;;19.57;;
29294;SDS011;16305;48.566;8.846;2023-03-01T06:49:40;39.03;;;20.67;;
29294;SDS011;16305;48.566;8.846;2023-03-01T06:52:06;40.63;;;19.97;;
29294;SDS011;16305;48.566;8.846;2023-03-01T06:54:31;28.63;;;14.20;;
29294;SDS011;16305;48.566;8.846;2023-03-01T06:56:57;36.43;;;19.70;;
29294;SDS011;16305;48.566;8.846;2023-03-01T06:59:22;35.07;;;20.03;;
29294;SDS011;16305;48.566;8.846;2023-03-01T07:01:48;43.13;;;19.13;;
29294;SDS011;16305;48.566;8.846;2023-03-01T07:04:14;36.90;;;18.90;;
29294;SDS011;16305;48.566;8.846;2023-03-01T07:06:39;40.40;;;20.63;;
29294;SDS011;16305;48.566;8.846;2023-03-01T07:09:05;32.03;;;18.63;;
29294;SDS011;16305;48.566;8.846;2023-03-01T07:11:30;34.10;;;18.10;;
29294;SDS011;16305;48.566;8.846;2023-03-01T07:13:56;31.57;;;14.53;;
29294;SDS011;16305;48.566;8.846;2023-03-01T07:16:23;26.73;;;13.03;;
29294;SDS011;16305;48.566;8.846;2023-03-01T07:18:48;39.10;;;20.40;;
29294;SDS011;16305;48.566;8.846;2023-03-01T07:21:14;31.70;;;16.37;;
29294;SDS011;16305;48.566;8.846;2023-03-01T07:23:41;35.30;;;18.80;;
29294;SDS011;16305;48.566;8.846;2023-03-01T07:26:07;36.73;;;20.23;;
29294;SDS011;16305;48.566;8.846;2023-03-01T07:28:32;43.87;;;20.20;;
29294;SDS011;16305;48.566;8.846;2023-03-01T07:31:03;39.33;;;21.03;;
29294;SDS011;16305;48.566;8.846;2023-03-01T07:33:29;39.97;;;20.43;;
29294;SDS011;16305;48.566;8.846;2023-03-01T07:35:58;39.03;;;20.73;;
29294;SDS011;16305;48.566;8.846;2023-03-01T07:38:26;39.60;;;21.20;;
29294;SDS011;16305;48.566;8.846;2023-03-01T07:40:53;40.97;;;20.77;;
29294;SDS011;16305;48.566;8.846;2023-03-01T07:43:22;38.87;;;20.03;;
29294;SDS011;16305;48.566;8.846;2023-03-01T07:45:47;42.67;;;21.80;;
29294;SDS011;16305;48.566;8.846;2023-03-01T07:48:13;38.30;;;21.80;;
29294;SDS011;16305;48.566;8.846;2023-03-01T07:50:39;38.03;;;21.00;;
29294;SDS011;16305;48.566;8.846;2023-03-01T07:53:04;38.83;;;21.00;;
29294;SDS011;16305;48.566;8.846;2023-03-01T07:55:30;38.13;;;20.83;;
29294;SDS011;16305;48.566;8.846;2023-03-01T07:57:55;40.43;;;21.90;;
29294;SDS011;16305;48.566;8.846;2023-03-01T08:00:21;38.97;;;20.97;;
29294;SDS011;16305;48.566;8.846;2023-03-01T08:02:46;37.50;;;21.20;;
29294;SDS011;16305;48.566;8.846;2023-03-01T08:05:12;41.77;;;21.93;;
29294;SDS011;16305;48.566;8.846;2023-03-01T08:07:37;37.33;;;19.97;;
29294;SDS011;16305;48.566;8.846;2023-03-01T08:10:03;43.13;;;22.50;;
29294;SDS011;16305;48.566;8.846;2023-03-01T08:12:29;35.17;;;19.23;;
29294;SDS011;16305;48.566;8.846;2023-03-01T08:14:55;39.13;;;22.33;;
29294;SDS011;16305;48.566;8.846;2023-03-01T08:17:21;41.33;;;21.27;;
29294;SDS011;16305;48.566;8.846;2023-03-01T08:19:48;39.77;;;21.67;;
29294;SDS011;16305;48.566;8.846;2023-03-01T08:22:14;41.97;;;22.40;;
29294;SDS011;16305;48.566;8.846;2023-03-01T08:24:39;37.67;;;20.90;;
29294;SDS011;16305;48.566;8.846;2023-03-01T08:27:05;45.43;;;22.13;;
29294;SDS011;16305;48.566;8.846;2023-03-01T08:29:31;39.43;;;20.67;;
29294;SDS011;16305;48.566;8.846;2023-03-01T08:31:57;39.53;;;21.47;;
29294;SDS011;16305;48.566;8.846;2023-03-01T08:34:22;37.23;;;19.60;;
29294;SDS011;16305;48.566;8.846;2023-03-01T08:36:48;39.20;;;21.13;;
29294;SDS011;16305;48.566;8.846;2023-03-01T08:39:16;35.40;;;19.83;;
29294;SDS011;16305;48.566;8.846;2023-03-01T08:41:43;46.57;;;21.83;;
29294;SDS011;16305;48.566;8.846;2023-03-01T08:44:09;36.13;;;19.17;;
29294;SDS011;16305;48.566;8.846;2023-03-01T08:46:37;46.33;;;20.87;;
29294;SDS011;16305;48.566;8.846;2023-03-01T08:49:06;39.67;;;22.07;;
29294;SDS011;16305;48.566;8.846;2023-03-01T08:51:33;36.63;;;21.33;;
29294;SDS011;16305;48.566;8.846;2023-03-01T08:54:05;32.67;;;19.87;;
29294;SDS011;16305;48.566;8.846;2023-03-01T08:56:33;39.63;;;21.13;;
29294;SDS011;16305;48.566;8.846;2023-03-01T08:58:59;36.43;;;20.00;;
29294;SDS011;16305;48.566;8.846;2023-03-01T09:01:24;36.70;;;21.60;;
29294;SDS011;16305;48.566;8.846;2023-03-01T09:03:50;35.70;;;20.30;;
29294;SDS011;16305;48.566;8.846;2023-03-01T09:06:16;35.97;;;19.63;;
29294;SDS011;16305;48.566;8.846;2023-03-01T09:08:42;37.10;;;20.47;;
29294;SDS011;16305;48.566;8.846;2023-03-01T09:11:10;34.37;;;20.50;;
29294;SDS011;16305;48.566;8.846;2023-03-01T09:13:38;31.80;;;19.60;;
29294;SDS011;16305;48.566;8.846;2023-03-01T09:16:05;36.20;;;21.63;;
29294;SDS011;16305;48.566;8.846;2023-03-01T09:18:32;38.40;;;21.27;;
29294;SDS011;16305;48.566;8.846;2023-03-01T09:21:12;36.23;;;20.37;;
29294;SDS011;16305;48.566;8.846;2023-03-01T09:23:40;32.50;;;19.23;;
29294;SDS011;16305;48.566;8.846;2023-03-01T09:26:11;37.20;;;20.27;;
29294;SDS011;16305;48.566;8.846;2023-03-01T09:28:40;32.30;;;20.20;;
29294;SDS011;16305;48.566;8.846;2023-03-01T09:31:12;32.80;;;19.43;;
29294;SDS011;16305;48.566;8.846;2023-03-01T09:33:39;37.67;;;20.97;;
29294;SDS011;16305;48.566;8.846;2023-03-01T09:36:06;31.70;;;20.07;;
29294;SDS011;16305;48.566;8.846;2023-03-01T09:38:43;34.70;;;20.00;;
29294;SDS011;16305;48.566;8.846;2023-03-01T09:46:43;34.17;;;19.93;;
29294;SDS011;16305;48.566;8.846;2023-03-01T09:49:12;32.43;;;19.50;;
29294;SDS011;16305;48.566;8.846;2023-03-01T09:51:42;33.20;;;19.37;;
29294;SDS011;16305;48.566;8.846;2023-03-01T09:54:14;34.50;;;19.57;;
29294;SDS011;16305;48.566;8.846;2023-03-01T09:56:40;32.63;;;19.53;;
29294;SDS011;16305;48.566;8.846;2023-03-01T10:09:51;32.87;;;21.10;;
29294;SDS011;16305;48.566;8.846;2023-03-01T10:12:23;32.50;;;18.73;;
29294;SDS011;16305;48.566;8.846;2023-03-01T10:15:15;33.23;;;20.03;;
29294;SDS011;16305;48.566;8.846;2023-03-01T10:18:01;36.10;;;19.30;;
29294;SDS011;16305;48.566;8.846;2023-03-01T10:23:28;35.00;;;19.87;;
29294;SDS011;16305;48.566;8.846;2023-03-01T10:26:02;31.73;;;18.50;;
29294;SDS011;16305;48.566;8.846;2023-03-01T10:29:07;32.03;;;19.37;;
29294;SDS011;16305;48.566;8.846;2023-03-01T10:31:38;29.87;;;18.07;;
29294;SDS011;16305;48.566;8.846;2023-03-01T10:34:13;34.10;;;19.80;;
29294;SDS011;16305;48.566;8.846;2023-03-01T10:36:43;33.67;;;19.97;;
29294;SDS011;16305;48.566;8.846;2023-03-01T10:39:18;30.70;;;18.73;;
29294;SDS011;16305;48.566;8.846;2023-03-01T10:42:05;33.83;;;19.80;;
29294;SDS011;16305;48.566;8.846;2023-03-01T10:44:48;32.13;;;19.17;;
29294;SDS011;16305;48.566;8.846;2023-03-01T10:49:52;33.13;;;19.23;;
29294;SDS011;16305;48.566;8.846;2023-03-01T10:52:18;30.50;;;19.50;;
29294;SDS011;16305;48.566;8.846;2023-03-01T10:54:52;34.00;;;19.03;;
29294;SDS011;16305;48.566;8.846;2023-03-01T10:57:27;31.60;;;19.83;;
29294;SDS011;16305;48.566;8.846;2023-03-01T11:00:02;29.50;;;19.17;;
29294;SDS011;16305;48.566;8.846;2023-03-01T11:02:45;32.27;;;19.83;;
29294;SDS011;16305;48.566;8.846;2023-03-01T11:07:46;28.97;;;18.97;;
29294;SDS011;16305;48.566;8.846;2023-03-01T11:10:30;30.20;;;19.00;;
29294;SDS011;16305;48.566;8.846;2023-03-01T11:13:07;32.73;;;19.80;;
29294;SDS011;16305;48.566;8.846;2023-03-01T11:15:39;28.67;;;18.53;;
29294;SDS011;16305;48.566;8.846;2023-03-01T11:18:04;34.60;;;20.17;;
29294;SDS011;16305;48.566;8.846;2023-03-01T11:20:42;31.90;;;19.70;;
29294;SDS011;16305;48.566;8.846;2023-03-01T11:23:12;30.83;;;19.67;;
29294;SDS011;16305;48.566;8.846;2023-03-01T11:25:42;29.87;;;18.67;;
29294;SDS011;16305;48.566;8.846;2023-03-01T11:28:17;27.30;;;18.30;;
29294;SDS011;16305;48.566;8.846;2023-03-01T11:31:04;32.70;;;18.27;;
29294;SDS011;16305;48.566;8.846;2023-03-01T11:41:46;35.73;;;18.73;;
29294;SDS011;16305;48.566;8.846;2023-03-01T11:44:22;29.50;;;19.43;;
29294;SDS011;16305;48.566;8.846;2023-03-01T11:55:11;28.50;;;19.10;;
29294;SDS011;16305;48.566;8.846;2023-03-01T12:05:53;28.13;;;17.73;;
29294;SDS011;16305;48.566;8.846;2023-03-01T12:08:27;27.33;;;18.40;;
29294;SDS011;16305;48.566;8.846;2023-03-01T12:36:12;21.40;;;16.13;;
29294;SDS011;16305;48.566;8.846;2023-03-01T12:38:50;20.90;;;15.83;;
29294;SDS011;16305;48.566;8.846;2023-03-01T12:41:38;21.47;;;16.20;;
29294;SDS011;16305;48.566;8.846;2023-03-01T12:44:34;24.10;;;16.47;;
29294;SDS011;16305;48.566;8.846;2023-03-01T12:47:17;23.17;;;16.27;;
29294;SDS011;16305;48.566;8.846;2023-03-01T12:50:05;24.13;;;16.60;;
29294;SDS011;16305;48.566;8.846;2023-03-01T12:52:41;23.73;;;16.27;;
29294;SDS011;16305;48.566;8.846;2023-03-01T12:55:25;24.77;;;16.20;;
29294;SDS011;16305;48.566;8.846;2023-03-01T13:06:32;24.03;;;16.97;;
29294;SDS011;16305;48.566;8.846;2023-03-01T13:09:14;23.17;;;16.67;;
29294;SDS011;16305;48.566;8.846;2023-03-01T13:12:02;23.83;;;17.73;;
29294;SDS011;16305;48.566;8.846;2023-03-01T13:16:57;28.03;;;17.70;;
29294;SDS011;16305;48.566;8.846;2023-03-01T13:19:23;24.93;;;17.17;;
29294;SDS011;16305;48.566;8.846;2023-03-01T13:21:51;24.93;;;17.20;;
29294;SDS011;16305;48.566;8.846;2023-03-01T13:29:43;21.60;;;15.80;;
29294;SDS011;16305;48.566;8.846;2023-03-01T13:32:19;23.63;;;16.00;;
29294;SDS011;16305;48.566;8.846;2023-03-01T13:35:01;23.70;;;16.47;;
29294;SDS011;16305;48.566;8.846;2023-03-01T13:37:39;25.83;;;16.87;;
29294;SDS011;16305;48.566;8.846;2023-03-01T13:42:48;23.53;;;16.50;;
29294;SDS011;16305;48.566;8.846;2023-03-01T13:45:16;21.00;;;16.33;;
29294;SDS011;16305;48.566;8.846;2023-03-01T13:47:51;23.67;;;17.17;;
29294;SDS011;16305;48.566;8.846;2023-03-01T13:50:21;22.40;;;16.60;;
29294;SDS011;16305;48.566;8.846;2023-03-01T13:52:56;25.87;;;16.63;;
29294;SDS011;16305;48.566;8.846;2023-03-01T13:55:58;24.80;;;17.43;;
29294;SDS011;16305;48.566;8.846;2023-03-01T13:58:25;23.33;;;16.53;;
29294;SDS011;16305;48.566;8.846;2023-03-01T14:01:00;20.53;;;16.07;;
29294;SDS011;16305;48.566;8.846;2023-03-01T14:03:29;20.73;;;15.50;;
29294;SDS011;16305;48.566;8.846;2023-03-01T14:05:58;21.50;;;16.27;;
29294;SDS011;16305;48.566;8.846;2023-03-01T14:08:31;23.57;;;15.53;;
29294;SDS011;16305;48.566;8.846;2023-03-01T14:16:44;22.63;;;14.87;;
29294;SDS011;16305;48.566;8.846;2023-03-01T14:19:27;21.50;;;15.63;;
29294;SDS011;16305;48.566;8.846;2023-03-01T14:21:58;24.90;;;15.47;;
29294;SDS011;16305;48.566;8.846;2023-03-01T14:24:30;22.00;;;15.37;;
29294;SDS011;16305;48.566;8.846;2023-03-01T14:27:00;20.63;;;14.93;;
29294;SDS011;16305;48.566;8.846;2023-03-01T14:29:36;19.00;;;14.70;;
29294;SDS011;16305;48.566;8.846;2023-03-01T14:32:10;19.50;;;14.63;;
29294;SDS011;16305;48.566;8.846;2023-03-01T14:34:53;21.97;;;15.63;;
29294;SDS011;16305;48.566;8.846;2023-03-01T14:37:20;24.83;;;15.20;;
29294;SDS011;16305;48.566;8.846;2023-03-01T14:40:05;19.63;;;14.63;;
29294;SDS011;16305;48.566;8.846;2023-03-01T14:42:46;20.80;;;14.87;;
29294;SDS011;16305;48.566;8.846;2023-03-01T14:45:11;20.53;;;14.93;;
29294;SDS011;16305;48.566;8.846;2023-03-01T14:47:38;21.83;;;15.37;;
29294;SDS011;16305;48.566;8.846;2023-03-01T14:52:46;22.07;;;15.03;;
29294;SDS011;16305;48.566;8.846;2023-03-01T14:55:25;17.90;;;13.43;;
29294;SDS011;16305;48.566;8.846;2023-03-01T14:57:53;19.03;;;14.90;;
29294;SDS011;16305;48.566;8.846;2023-03-01T15:00:29;18.73;;;14.33;;
29294;SDS011;16305;48.566;8.846;2023-03-01T15:02:58;18.30;;;14.63;;
29294;SDS011;16305;48.566;8.846;2023-03-01T15:05:34;21.37;;;15.17;;
29294;SDS011;16305;48.566;8.846;2023-03-01T15:08:02;37.40;;;14.43;;
29294;SDS011;16305;48.566;8.846;2023-03-01T15:10:30;27.03;;;14.23;;
29294;SDS011;16305;48.566;8.846;2023-03-01T15:13:13;19.33;;;13.40;;
29294;SDS011;16305;48.566;8.846;2023-03-01T15:15:47;41.33;;;15.17;;
29294;SDS011;16305;48.566;8.846;2023-03-01T15:20:42;39.83;;;18.63;;
29294;SDS011;16305;48.566;8.846;2023-03-01T15:23:16;40.47;;;18.27;;
29294;SDS011;16305;48.566;8.846;2023-03-01T15:25:51;27.17;;;17.70;;
29294;SDS011;16305;48.566;8.846;2023-03-01T15:28:22;36.50;;;18.40;;
29294;SDS011;16305;48.566;8.846;2023-03-01T15:33:49;26.10;;;16.50;;
29294;SDS011;16305;48.566;8.846;2023-03-01T15:39:39;28.77;;;17.73;;
29294;SDS011;16305;48.566;8.846;2023-03-01T15:42:04;26.43;;;17.40;;
29294;SDS011;16305;48.566;8.846;2023-03-01T15:44:35;24.07;;;16.97;;
29294;SDS011;16305;48.566;8.846;2023-03-01T15:47:08;31.10;;;18.00;;
29294;SDS011;16305;48.566;8.846;2023-03-01T15:49:51;29.50;;;16.80;;
29294;SDS011;16305;48.566;8.846;2023-03-01T15:52:26;31.70;;;17.97;;
29294;SDS011;16305;48.566;8.846;2023-03-01T15:55:18;30.33;;;18.03;;
29294;SDS011;16305;48.566;8.846;2023-03-01T15:57:45;30.60;;;18.10;;
29294;SDS011;16305;48.566;8.846;2023-03-01T16:00:12;31.97;;;17.57;;
29294;SDS011;16305;48.566;8.846;2023-03-01T16:02:39;28.93;;;17.37;;
29294;SDS011;16305;48.566;8.846;2023-03-01T16:05:08;36.03;;;18.60;;
29294;SDS011;16305;48.566;8.846;2023-03-01T16:07:41;35.73;;;19.03;;
29294;SDS011;16305;48.566;8.846;2023-03-01T16:10:06;31.27;;;18.57;;
29294;SDS011;16305;48.566;8.846;2023-03-01T16:12:32;29.23;;;18.23;;
29294;SDS011;16305;48.566;8.846;2023-03-01T16:14:57;28.33;;;18.97;;
29294;SDS011;16305;48.566;8.846;2023-03-01T16:17:23;33.03;;;18.73;;
29294;SDS011;16305;48.566;8.846;2023-03-01T16:19:49;34.20;;;17.47;;
29294;SDS011;16305;48.566;8.846;2023-03-01T16:22:14;31.20;;;18.83;;
29294;SDS011;16305;48.566;8.846;2023-03-01T16:24:40;33.63;;;19.20;;
29294;SDS011;16305;48.566;8.846;2023-03-01T16:27:06;27.87;;;15.63;;
29294;SDS011;16305;48.566;8.846;2023-03-01T16:29:32;34.40;;;18.80;;
29294;SDS011;16305;48.566;8.846;2023-03-01T16:31:59;35.80;;;19.37;;